sensor_id;sensor_type;location;lat;lon;timestamp;P1;durP1;ratioP1;P2;durP2;ratioP2
36501;SDS011;25393;46.108;3.390;2022-12-07T00:01:35;52.93;;;14.57;;
36501;SDS011;25393;46.108;3.390;2022-12-07T00:04:05;73.13;;;14.20;;
36501;SDS011;25393;46.108;3.390;2022-12-07T00:09:04;40.70;;;14.10;;
36501;SDS011;25393;46.108;3.390;2022-12-07T00:11:34;56.60;;;14.73;;
36501;SDS011;25393;46.108;3.390;2022-12-07T00:14:02;72.50;;;13.87;;
36501;SDS011;25393;46.108;3.390;2022-12-07T00:16:36;61.87;;;14.07;;
36501;SDS011;25393;46.108;3.390;2022-12-07T00:19:06;52.43;;;13.90;;
36501;SDS011;25393;46.108;3.390;2022-12-07T00:21:36;57.50;;;14.07;;
36501;SDS011;25393;46.108;3.390;2022-12-07T00:24:06;111.20;;;16.43;;
36501;SDS011;25393;46.108;3.390;2022-12-07T00:26:33;89.17;;;15.83;;
36501;SDS011;25393;46.108;3.390;2022-12-07T00:29:06;39.93;;;12.20;;
36501;SDS011;25393;46.108;3.390;2022-12-07T00:31:37;71.93;;;12.57;;
36501;SDS011;25393;46.108;3.390;2022-12-07T00:34:06;83.80;;;15.83;;
36501;SDS011;25393;46.108;3.390;2022-12-07T00:36:34;73.27;;;13.90;;
36501;SDS011;25393;46.108;3.390;2022-12-07T00:39:07;59.17;;;12.73;;
36501;SDS011;25393;46.108;3.390;2022-12-07T00:41:37;44.23;;;12.67;;
36501;SDS011;25393;46.108;3.390;2022-12-07T00:44:05;120.13;;;17.00;;
36501;SDS011;25393;46.108;3.390;2022-12-07T00:46:37;67.10;;;13.30;;
36501;SDS011;25393;46.108;3.390;2022-12-07T00:49:07;130.83;;;16.70;;
36501;SDS011;25393;46.108;3.390;2022-12-07T00:51:33;74.37;;;15.17;;
36501;SDS011;25393;46.108;3.390;2022-12-07T00:54:02;40.93;;;13.13;;
36501;SDS011;25393;46.108;3.390;2022-12-07T00:56:29;79.03;;;14.10;;
36501;SDS011;25393;46.108;3.390;2022-12-07T00:58:57;61.40;;;13.73;;
36501;SDS011;25393;46.108;3.390;2022-12-07T01:01:26;62.33;;;13.37;;
36501;SDS011;25393;46.108;3.390;2022-12-07T01:03:54;129.17;;;15.97;;
36501;SDS011;25393;46.108;3.390;2022-12-07T01:06:24;80.73;;;13.90;;
36501;SDS011;25393;46.108;3.390;2022-12-07T01:08:52;132.23;;;16.03;;
36501;SDS011;25393;46.108;3.390;2022-12-07T01:11:20;61.73;;;13.27;;
36501;SDS011;25393;46.108;3.390;2022-12-07T01:13:52;55.43;;;12.70;;
36501;SDS011;25393;46.108;3.390;2022-12-07T01:16:19;69.27;;;14.00;;
36501;SDS011;25393;46.108;3.390;2022-12-07T01:18:49;44.87;;;13.17;;
36501;SDS011;25393;46.108;3.390;2022-12-07T01:21:18;83.30;;;13.77;;
36501;SDS011;25393;46.108;3.390;2022-12-07T01:23:49;81.37;;;14.23;;
36501;SDS011;25393;46.108;3.390;2022-12-07T01:26:20;60.63;;;13.33;;
36501;SDS011;25393;46.108;3.390;2022-12-07T01:28:48;98.40;;;16.57;;
36501;SDS011;25393;46.108;3.390;2022-12-07T01:31:16;68.77;;;14.13;;
36501;SDS011;25393;46.108;3.390;2022-12-07T01:33:46;116.20;;;15.97;;
36501;SDS011;25393;46.108;3.390;2022-12-07T01:36:16;55.07;;;13.30;;
36501;SDS011;25393;46.108;3.390;2022-12-07T01:38:45;81.53;;;15.10;;
36501;SDS011;25393;46.108;3.390;2022-12-07T01:41:13;96.77;;;16.07;;
36501;SDS011;25393;46.108;3.390;2022-12-07T01:44:07;55.30;;;12.57;;
36501;SDS011;25393;46.108;3.390;2022-12-07T01:46:52;73.80;;;15.03;;
36501;SDS011;25393;46.108;3.390;2022-12-07T01:49:37;57.97;;;13.43;;
36501;SDS011;25393;46.108;3.390;2022-12-07T01:52:16;90.30;;;13.87;;
36501;SDS011;25393;46.108;3.390;2022-12-07T01:54:47;50.63;;;13.80;;
36501;SDS011;25393;46.108;3.390;2022-12-07T01:57:15;110.73;;;15.23;;
36501;SDS011;25393;46.108;3.390;2022-12-07T01:59:43;55.63;;;13.17;;
36501;SDS011;25393;46.108;3.390;2022-12-07T02:02:14;90.53;;;16.77;;
36501;SDS011;25393;46.108;3.390;2022-12-07T02:04:45;159.47;;;18.17;;
36501;SDS011;25393;46.108;3.390;2022-12-07T02:07:12;118.70;;;16.93;;
36501;SDS011;25393;46.108;3.390;2022-12-07T02:09:42;102.47;;;15.07;;
36501;SDS011;25393;46.108;3.390;2022-12-07T02:12:12;46.40;;;14.53;;
36501;SDS011;25393;46.108;3.390;2022-12-07T02:14:41;54.10;;;13.43;;
36501;SDS011;25393;46.108;3.390;2022-12-07T02:20:07;64.27;;;13.57;;
36501;SDS011;25393;46.108;3.390;2022-12-07T02:25:45;46.63;;;13.63;;
36501;SDS011;25393;46.108;3.390;2022-12-07T02:31:38;69.80;;;12.70;;
36501;SDS011;25393;46.108;3.390;2022-12-07T02:34:54;85.13;;;14.80;;
36501;SDS011;25393;46.108;3.390;2022-12-07T02:37:32;43.23;;;13.93;;
36501;SDS011;25393;46.108;3.390;2022-12-07T02:40:06;82.60;;;13.90;;
36501;SDS011;25393;46.108;3.390;2022-12-07T02:42:45;70.83;;;13.10;;
36501;SDS011;25393;46.108;3.390;2022-12-07T02:45:17;85.60;;;14.30;;
36501;SDS011;25393;46.108;3.390;2022-12-07T02:47:48;92.00;;;14.63;;
36501;SDS011;25393;46.108;3.390;2022-12-07T02:50:18;96.10;;;14.73;;
36501;SDS011;25393;46.108;3.390;2022-12-07T02:52:46;80.20;;;13.50;;
36501;SDS011;25393;46.108;3.390;2022-12-07T02:55:13;45.97;;;13.30;;
36501;SDS011;25393;46.108;3.390;2022-12-07T03:00:26;48.80;;;13.17;;
36501;SDS011;25393;46.108;3.390;2022-12-07T03:11:16;70.57;;;13.43;;
36501;SDS011;25393;46.108;3.390;2022-12-07T03:14:01;56.93;;;12.73;;
36501;SDS011;25393;46.108;3.390;2022-12-07T03:16:42;41.10;;;14.13;;
36501;SDS011;25393;46.108;3.390;2022-12-07T03:19:16;60.00;;;12.00;;
36501;SDS011;25393;46.108;3.390;2022-12-07T03:21:46;56.03;;;13.33;;
36501;SDS011;25393;46.108;3.390;2022-12-07T03:24:20;57.00;;;13.30;;
36501;SDS011;25393;46.108;3.390;2022-12-07T03:26:52;52.90;;;13.63;;
36501;SDS011;25393;46.108;3.390;2022-12-07T03:29:27;34.07;;;11.73;;
36501;SDS011;25393;46.108;3.390;2022-12-07T03:31:59;56.97;;;12.63;;
36501;SDS011;25393;46.108;3.390;2022-12-07T03:34:36;48.07;;;11.90;;
36501;SDS011;25393;46.108;3.390;2022-12-07T03:37:14;43.53;;;10.97;;
36501;SDS011;25393;46.108;3.390;2022-12-07T03:43:00;73.30;;;13.13;;
36501;SDS011;25393;46.108;3.390;2022-12-07T03:45:42;92.10;;;16.03;;
36501;SDS011;25393;46.108;3.390;2022-12-07T03:48:19;48.07;;;14.60;;
36501;SDS011;25393;46.108;3.390;2022-12-07T03:50:57;60.43;;;11.67;;
36501;SDS011;25393;46.108;3.390;2022-12-07T03:53:34;53.47;;;13.00;;
36501;SDS011;25393;46.108;3.390;2022-12-07T03:56:06;34.43;;;11.60;;
36501;SDS011;25393;46.108;3.390;2022-12-07T03:58:35;55.53;;;12.03;;
36501;SDS011;25393;46.108;3.390;2022-12-07T04:01:02;67.93;;;12.50;;
36501;SDS011;25393;46.108;3.390;2022-12-07T04:03:29;46.17;;;12.70;;
36501;SDS011;25393;46.108;3.390;2022-12-07T04:05:56;33.67;;;11.47;;
36501;SDS011;25393;46.108;3.390;2022-12-07T04:08:24;37.37;;;11.60;;
36501;SDS011;25393;46.108;3.390;2022-12-07T04:10:51;34.93;;;12.27;;
36501;SDS011;25393;46.108;3.390;2022-12-07T04:13:17;36.50;;;11.63;;
36501;SDS011;25393;46.108;3.390;2022-12-07T04:15:44;31.93;;;11.37;;
36501;SDS011;25393;46.108;3.390;2022-12-07T04:18:13;34.73;;;12.23;;
36501;SDS011;25393;46.108;3.390;2022-12-07T04:20:39;29.67;;;9.90;;
36501;SDS011;25393;46.108;3.390;2022-12-07T04:23:06;30.80;;;12.20;;
36501;SDS011;25393;46.108;3.390;2022-12-07T04:25:32;37.30;;;10.97;;
36501;SDS011;25393;46.108;3.390;2022-12-07T04:27:59;28.70;;;10.43;;
36501;SDS011;25393;46.108;3.390;2022-12-07T04:30:26;31.57;;;11.23;;
36501;SDS011;25393;46.108;3.390;2022-12-07T04:32:52;30.77;;;10.80;;
36501;SDS011;25393;46.108;3.390;2022-12-07T04:35:19;27.97;;;10.37;;
36501;SDS011;25393;46.108;3.390;2022-12-07T04:37:45;26.43;;;10.97;;
36501;SDS011;25393;46.108;3.390;2022-12-07T04:40:14;43.97;;;11.50;;
36501;SDS011;25393;46.108;3.390;2022-12-07T04:42:41;28.17;;;10.80;;
36501;SDS011;25393;46.108;3.390;2022-12-07T04:45:08;41.83;;;11.57;;
36501;SDS011;25393;46.108;3.390;2022-12-07T04:47:35;31.73;;;9.87;;
36501;SDS011;25393;46.108;3.390;2022-12-07T04:50:02;28.43;;;10.83;;
36501;SDS011;25393;46.108;3.390;2022-12-07T04:52:29;30.57;;;10.87;;
36501;SDS011;25393;46.108;3.390;2022-12-07T04:54:56;25.13;;;9.87;;
36501;SDS011;25393;46.108;3.390;2022-12-07T04:57:22;28.07;;;10.23;;
36501;SDS011;25393;46.108;3.390;2022-12-07T04:59:49;23.63;;;8.40;;
36501;SDS011;25393;46.108;3.390;2022-12-07T05:02:16;24.37;;;9.93;;
36501;SDS011;25393;46.108;3.390;2022-12-07T05:04:42;24.47;;;8.43;;
36501;SDS011;25393;46.108;3.390;2022-12-07T05:07:09;24.20;;;9.30;;
36501;SDS011;25393;46.108;3.390;2022-12-07T05:09:35;22.40;;;9.27;;
36501;SDS011;25393;46.108;3.390;2022-12-07T05:12:02;19.67;;;8.70;;
36501;SDS011;25393;46.108;3.390;2022-12-07T05:14:29;22.17;;;8.33;;
36501;SDS011;25393;46.108;3.390;2022-12-07T05:16:55;22.33;;;8.43;;
36501;SDS011;25393;46.108;3.390;2022-12-07T05:19:22;19.40;;;7.30;;
36501;SDS011;25393;46.108;3.390;2022-12-07T05:21:48;19.93;;;7.97;;
36501;SDS011;25393;46.108;3.390;2022-12-07T05:24:18;19.40;;;7.73;;
36501;SDS011;25393;46.108;3.390;2022-12-07T05:26:46;16.77;;;6.90;;
36501;SDS011;25393;46.108;3.390;2022-12-07T05:29:14;24.33;;;7.93;;
36501;SDS011;25393;46.108;3.390;2022-12-07T05:31:41;23.93;;;8.57;;
36501;SDS011;25393;46.108;3.390;2022-12-07T05:34:08;18.57;;;7.70;;
36501;SDS011;25393;46.108;3.390;2022-12-07T05:36:35;23.40;;;7.57;;
36501;SDS011;25393;46.108;3.390;2022-12-07T05:39:02;21.17;;;7.80;;
36501;SDS011;25393;46.108;3.390;2022-12-07T05:41:29;16.20;;;7.10;;
36501;SDS011;25393;46.108;3.390;2022-12-07T05:44:14;19.10;;;7.63;;
36501;SDS011;25393;46.108;3.390;2022-12-07T05:46:41;19.43;;;8.53;;
36501;SDS011;25393;46.108;3.390;2022-12-07T05:49:07;17.97;;;7.47;;
36501;SDS011;25393;46.108;3.390;2022-12-07T05:51:34;19.77;;;7.97;;
36501;SDS011;25393;46.108;3.390;2022-12-07T05:54:00;21.37;;;7.30;;
36501;SDS011;25393;46.108;3.390;2022-12-07T05:56:27;18.00;;;8.10;;
36501;SDS011;25393;46.108;3.390;2022-12-07T05:58:54;21.63;;;8.10;;
36501;SDS011;25393;46.108;3.390;2022-12-07T06:01:39;21.40;;;8.50;;
36501;SDS011;25393;46.108;3.390;2022-12-07T06:04:06;21.10;;;8.53;;
36501;SDS011;25393;46.108;3.390;2022-12-07T06:06:33;20.70;;;8.20;;
36501;SDS011;25393;46.108;3.390;2022-12-07T06:08:59;22.10;;;8.60;;
36501;SDS011;25393;46.108;3.390;2022-12-07T06:11:26;21.40;;;8.03;;
36501;SDS011;25393;46.108;3.390;2022-12-07T06:14:11;20.73;;;7.87;;
36501;SDS011;25393;46.108;3.390;2022-12-07T06:16:38;21.53;;;7.83;;
36501;SDS011;25393;46.108;3.390;2022-12-07T06:19:05;20.53;;;7.87;;
36501;SDS011;25393;46.108;3.390;2022-12-07T06:21:31;17.77;;;7.77;;
36501;SDS011;25393;46.108;3.390;2022-12-07T06:23:58;21.10;;;8.37;;
36501;SDS011;25393;46.108;3.390;2022-12-07T06:26:24;23.67;;;9.50;;
36501;SDS011;25393;46.108;3.390;2022-12-07T06:28:51;18.63;;;7.97;;
36501;SDS011;25393;46.108;3.390;2022-12-07T06:31:20;22.80;;;8.37;;
36501;SDS011;25393;46.108;3.390;2022-12-07T06:33:49;18.97;;;8.93;;
36501;SDS011;25393;46.108;3.390;2022-12-07T06:36:16;23.67;;;9.63;;
36501;SDS011;25393;46.108;3.390;2022-12-07T06:38:48;23.17;;;8.90;;
36501;SDS011;25393;46.108;3.390;2022-12-07T06:41:14;21.30;;;7.97;;
36501;SDS011;25393;46.108;3.390;2022-12-07T06:43:41;20.70;;;7.77;;
36501;SDS011;25393;46.108;3.390;2022-12-07T06:46:08;17.17;;;7.70;;
36501;SDS011;25393;46.108;3.390;2022-12-07T06:48:34;20.93;;;8.30;;
36501;SDS011;25393;46.108;3.390;2022-12-07T06:51:01;17.73;;;8.13;;
36501;SDS011;25393;46.108;3.390;2022-12-07T06:53:27;19.87;;;7.63;;
36501;SDS011;25393;46.108;3.390;2022-12-07T06:55:57;21.00;;;7.83;;
36501;SDS011;25393;46.108;3.390;2022-12-07T06:58:27;22.13;;;9.07;;
36501;SDS011;25393;46.108;3.390;2022-12-07T07:00:54;22.07;;;8.23;;
36501;SDS011;25393;46.108;3.390;2022-12-07T07:03:24;19.03;;;7.90;;
36501;SDS011;25393;46.108;3.390;2022-12-07T07:05:53;20.60;;;8.30;;
36501;SDS011;25393;46.108;3.390;2022-12-07T07:08:22;26.00;;;7.83;;
36501;SDS011;25393;46.108;3.390;2022-12-07T07:10:50;22.07;;;8.80;;
36501;SDS011;25393;46.108;3.390;2022-12-07T07:13:16;19.07;;;7.87;;
36501;SDS011;25393;46.108;3.390;2022-12-07T07:15:43;21.80;;;9.00;;
36501;SDS011;25393;46.108;3.390;2022-12-07T07:18:10;17.57;;;8.30;;
36501;SDS011;25393;46.108;3.390;2022-12-07T07:20:36;18.57;;;8.77;;
36501;SDS011;25393;46.108;3.390;2022-12-07T07:23:03;21.13;;;8.33;;
36501;SDS011;25393;46.108;3.390;2022-12-07T07:25:31;22.17;;;8.87;;
36501;SDS011;25393;46.108;3.390;2022-12-07T07:27:58;26.30;;;9.63;;
36501;SDS011;25393;46.108;3.390;2022-12-07T07:30:25;24.70;;;9.83;;
36501;SDS011;25393;46.108;3.390;2022-12-07T07:32:58;21.33;;;9.00;;
36501;SDS011;25393;46.108;3.390;2022-12-07T07:35:26;20.33;;;9.33;;
36501;SDS011;25393;46.108;3.390;2022-12-07T07:37:59;19.97;;;9.17;;
36501;SDS011;25393;46.108;3.390;2022-12-07T07:40:29;22.80;;;9.10;;
36501;SDS011;25393;46.108;3.390;2022-12-07T07:42:56;24.63;;;8.80;;
36501;SDS011;25393;46.108;3.390;2022-12-07T07:45:25;25.60;;;9.63;;
36501;SDS011;25393;46.108;3.390;2022-12-07T07:47:54;28.77;;;10.80;;
36501;SDS011;25393;46.108;3.390;2022-12-07T07:50:21;42.00;;;14.97;;
36501;SDS011;25393;46.108;3.390;2022-12-07T07:52:48;32.07;;;12.07;;
36501;SDS011;25393;46.108;3.390;2022-12-07T07:55:15;28.83;;;10.37;;
36501;SDS011;25393;46.108;3.390;2022-12-07T07:57:44;21.87;;;8.50;;
36501;SDS011;25393;46.108;3.390;2022-12-07T08:00:19;25.13;;;9.53;;
36501;SDS011;25393;46.108;3.390;2022-12-07T08:02:46;21.57;;;9.30;;
36501;SDS011;25393;46.108;3.390;2022-12-07T08:05:13;26.97;;;10.27;;
36501;SDS011;25393;46.108;3.390;2022-12-07T08:07:40;15.33;;;7.57;;
36501;SDS011;25393;46.108;3.390;2022-12-07T08:10:07;26.37;;;10.40;;
36501;SDS011;25393;46.108;3.390;2022-12-07T08:12:40;23.47;;;9.00;;
36501;SDS011;25393;46.108;3.390;2022-12-07T08:15:27;20.30;;;8.63;;
36501;SDS011;25393;46.108;3.390;2022-12-07T08:17:56;18.90;;;8.60;;
36501;SDS011;25393;46.108;3.390;2022-12-07T08:20:26;22.17;;;9.00;;
36501;SDS011;25393;46.108;3.390;2022-12-07T08:22:53;20.37;;;9.03;;
36501;SDS011;25393;46.108;3.390;2022-12-07T08:25:19;22.00;;;8.97;;
36501;SDS011;25393;46.108;3.390;2022-12-07T08:27:47;26.17;;;12.50;;
36501;SDS011;25393;46.108;3.390;2022-12-07T08:30:13;22.83;;;10.40;;
36501;SDS011;25393;46.108;3.390;2022-12-07T08:32:41;26.97;;;10.20;;
36501;SDS011;25393;46.108;3.390;2022-12-07T08:35:08;18.37;;;8.70;;
36501;SDS011;25393;46.108;3.390;2022-12-07T08:37:35;23.67;;;9.30;;
36501;SDS011;25393;46.108;3.390;2022-12-07T08:40:04;23.10;;;9.67;;
36501;SDS011;25393;46.108;3.390;2022-12-07T08:42:43;24.40;;;9.73;;
36501;SDS011;25393;46.108;3.390;2022-12-07T08:45:11;22.10;;;9.33;;
36501;SDS011;25393;46.108;3.390;2022-12-07T08:50:22;24.27;;;9.10;;
36501;SDS011;25393;46.108;3.390;2022-12-07T08:52:51;46.00;;;19.13;;
36501;SDS011;25393;46.108;3.390;2022-12-07T08:55:21;34.27;;;12.23;;
36501;SDS011;25393;46.108;3.390;2022-12-07T08:57:48;25.33;;;10.13;;
36501;SDS011;25393;46.108;3.390;2022-12-07T09:00:16;26.07;;;9.50;;
36501;SDS011;25393;46.108;3.390;2022-12-07T09:02:43;24.00;;;9.20;;
36501;SDS011;25393;46.108;3.390;2022-12-07T09:05:11;24.27;;;10.23;;
36501;SDS011;25393;46.108;3.390;2022-12-07T09:07:43;25.60;;;10.10;;
36501;SDS011;25393;46.108;3.390;2022-12-07T09:10:12;28.83;;;9.93;;
36501;SDS011;25393;46.108;3.390;2022-12-07T09:12:40;24.53;;;9.77;;
36501;SDS011;25393;46.108;3.390;2022-12-07T09:15:07;21.53;;;9.30;;
36501;SDS011;25393;46.108;3.390;2022-12-07T09:17:34;30.90;;;11.40;;
36501;SDS011;25393;46.108;3.390;2022-12-07T09:20:03;25.13;;;11.00;;
36501;SDS011;25393;46.108;3.390;2022-12-07T09:22:31;24.90;;;10.10;;
36501;SDS011;25393;46.108;3.390;2022-12-07T09:24:58;23.10;;;9.03;;
36501;SDS011;25393;46.108;3.390;2022-12-07T09:27:29;27.27;;;10.53;;
36501;SDS011;25393;46.108;3.390;2022-12-07T09:30:02;25.70;;;10.20;;
36501;SDS011;25393;46.108;3.390;2022-12-07T09:32:31;24.80;;;9.47;;
36501;SDS011;25393;46.108;3.390;2022-12-07T09:34:58;23.13;;;9.90;;
36501;SDS011;25393;46.108;3.390;2022-12-07T09:37:27;27.20;;;9.87;;
36501;SDS011;25393;46.108;3.390;2022-12-07T09:39:53;24.33;;;9.90;;
36501;SDS011;25393;46.108;3.390;2022-12-07T09:42:29;22.05;;;9.20;;
36501;SDS011;25393;46.108;3.390;2022-12-07T09:45:02;28.37;;;10.03;;
36501;SDS011;25393;46.108;3.390;2022-12-07T09:47:32;26.83;;;11.33;;
36501;SDS011;25393;46.108;3.390;2022-12-07T09:50:04;27.57;;;10.60;;
36501;SDS011;25393;46.108;3.390;2022-12-07T09:52:40;27.03;;;10.53;;
36501;SDS011;25393;46.108;3.390;2022-12-07T09:55:12;28.67;;;11.00;;
36501;SDS011;25393;46.108;3.390;2022-12-07T09:57:40;24.57;;;10.37;;
36501;SDS011;25393;46.108;3.390;2022-12-07T10:00:16;25.30;;;10.17;;
36501;SDS011;25393;46.108;3.390;2022-12-07T10:08:04;21.30;;;8.93;;
36501;SDS011;25393;46.108;3.390;2022-12-07T10:10:33;21.47;;;8.30;;
36501;SDS011;25393;46.108;3.390;2022-12-07T10:13:08;23.07;;;9.57;;
36501;SDS011;25393;46.108;3.390;2022-12-07T10:15:55;24.30;;;9.97;;
36501;SDS011;25393;46.108;3.390;2022-12-07T10:18:36;25.83;;;9.33;;
36501;SDS011;25393;46.108;3.390;2022-12-07T10:23:34;23.17;;;9.27;;
36501;SDS011;25393;46.108;3.390;2022-12-07T10:26:25;27.90;;;11.03;;
36501;SDS011;25393;46.108;3.390;2022-12-07T10:29:02;36.67;;;15.83;;
36501;SDS011;25393;46.108;3.390;2022-12-07T10:31:41;32.43;;;16.10;;
36501;SDS011;25393;46.108;3.390;2022-12-07T10:39:50;25.80;;;9.63;;
36501;SDS011;25393;46.108;3.390;2022-12-07T10:42:19;27.00;;;9.97;;
36501;SDS011;25393;46.108;3.390;2022-12-07T10:44:49;30.17;;;13.37;;
36501;SDS011;25393;46.108;3.390;2022-12-07T10:50:17;22.20;;;9.07;;
36501;SDS011;25393;46.108;3.390;2022-12-07T10:58:38;25.63;;;9.93;;
36501;SDS011;25393;46.108;3.390;2022-12-07T11:12:58;23.47;;;8.90;;
36501;SDS011;25393;46.108;3.390;2022-12-07T11:15:39;23.90;;;9.77;;
36501;SDS011;25393;46.108;3.390;2022-12-07T11:21:09;29.17;;;11.47;;
36501;SDS011;25393;46.108;3.390;2022-12-07T11:26:41;28.83;;;10.33;;
36501;SDS011;25393;46.108;3.390;2022-12-07T11:37:34;25.17;;;9.70;;
36501;SDS011;25393;46.108;3.390;2022-12-07T11:40:19;25.20;;;10.00;;
36501;SDS011;25393;46.108;3.390;2022-12-07T11:42:52;21.77;;;9.53;;
36501;SDS011;25393;46.108;3.390;2022-12-07T11:45:29;23.13;;;9.27;;
36501;SDS011;25393;46.108;3.390;2022-12-07T11:48:03;19.10;;;9.43;;
36501;SDS011;25393;46.108;3.390;2022-12-07T11:50:44;18.90;;;8.10;;
36501;SDS011;25393;46.108;3.390;2022-12-07T11:53:16;20.33;;;8.57;;
36501;SDS011;25393;46.108;3.390;2022-12-07T12:01:13;19.43;;;8.57;;
36501;SDS011;25393;46.108;3.390;2022-12-07T12:03:49;19.80;;;8.43;;
36501;SDS011;25393;46.108;3.390;2022-12-07T12:06:19;19.13;;;8.73;;
36501;SDS011;25393;46.108;3.390;2022-12-07T12:15:03;22.80;;;8.47;;
36501;SDS011;25393;46.108;3.390;2022-12-07T12:20:43;18.23;;;8.13;;
36501;SDS011;25393;46.108;3.390;2022-12-07T12:23:24;14.80;;;7.33;;
36501;SDS011;25393;46.108;3.390;2022-12-07T12:26:20;18.93;;;8.63;;
36501;SDS011;25393;46.108;3.390;2022-12-07T12:31:35;29.27;;;10.73;;
36501;SDS011;25393;46.108;3.390;2022-12-07T12:38:20;17.47;;;9.40;;
36501;SDS011;25393;46.108;3.390;2022-12-07T12:42:45;18.17;;;8.03;;
36501;SDS011;25393;46.108;3.390;2022-12-07T12:50:35;17.37;;;8.30;;
36501;SDS011;25393;46.108;3.390;2022-12-07T12:53:05;18.47;;;8.20;;
36501;SDS011;25393;46.108;3.390;2022-12-07T13:00:46;23.40;;;9.97;;
36501;SDS011;25393;46.108;3.390;2022-12-07T13:03:22;19.60;;;8.40;;
36501;SDS011;25393;46.108;3.390;2022-12-07T13:08:45;17.83;;;7.73;;
36501;SDS011;25393;46.108;3.390;2022-12-07T13:11:17;19.07;;;8.97;;
36501;SDS011;25393;46.108;3.390;2022-12-07T13:13:46;22.63;;;8.77;;
36501;SDS011;25393;46.108;3.390;2022-12-07T13:18:39;19.13;;;8.47;;
36501;SDS011;25393;46.108;3.390;2022-12-07T13:28:47;26.63;;;10.00;;
36501;SDS011;25393;46.108;3.390;2022-12-07T13:31:37;25.93;;;9.40;;
36501;SDS011;25393;46.108;3.390;2022-12-07T13:37:10;23.70;;;10.20;;
36501;SDS011;25393;46.108;3.390;2022-12-07T13:39:46;22.40;;;9.93;;
36501;SDS011;25393;46.108;3.390;2022-12-07T13:48:21;25.03;;;9.60;;
36501;SDS011;25393;46.108;3.390;2022-12-07T13:50:55;19.80;;;9.60;;
36501;SDS011;25393;46.108;3.390;2022-12-07T13:53:23;22.30;;;9.53;;
36501;SDS011;25393;46.108;3.390;2022-12-07T13:55:50;24.97;;;10.63;;
36501;SDS011;25393;46.108;3.390;2022-12-07T13:58:20;23.97;;;9.67;;
36501;SDS011;25393;46.108;3.390;2022-12-07T14:00:48;24.67;;;9.03;;
36501;SDS011;25393;46.108;3.390;2022-12-07T14:05:43;28.00;;;9.77;;
36501;SDS011;25393;46.108;3.390;2022-12-07T14:10:38;18.23;;;8.47;;
36501;SDS011;25393;46.108;3.390;2022-12-07T14:16:23;21.70;;;9.23;;
36501;SDS011;25393;46.108;3.390;2022-12-07T14:24:57;21.07;;;9.07;;
36501;SDS011;25393;46.108;3.390;2022-12-07T14:27:33;25.13;;;8.57;;
36501;SDS011;25393;46.108;3.390;2022-12-07T14:30:02;23.47;;;9.50;;
36501;SDS011;25393;46.108;3.390;2022-12-07T14:32:36;25.83;;;10.37;;
36501;SDS011;25393;46.108;3.390;2022-12-07T14:35:10;24.10;;;9.33;;
36501;SDS011;25393;46.108;3.390;2022-12-07T14:37:39;24.53;;;9.70;;
36501;SDS011;25393;46.108;3.390;2022-12-07T14:40:11;23.70;;;10.40;;
36501;SDS011;25393;46.108;3.390;2022-12-07T14:42:46;22.20;;;10.13;;
36501;SDS011;25393;46.108;3.390;2022-12-07T14:45:16;24.57;;;8.90;;
36501;SDS011;25393;46.108;3.390;2022-12-07T14:47:45;17.93;;;9.33;;
36501;SDS011;25393;46.108;3.390;2022-12-07T14:50:33;20.23;;;8.47;;
36501;SDS011;25393;46.108;3.390;2022-12-07T14:53:30;20.87;;;8.83;;
36501;SDS011;25393;46.108;3.390;2022-12-07T14:56:02;20.03;;;8.83;;
36501;SDS011;25393;46.108;3.390;2022-12-07T14:58:33;22.87;;;9.23;;
36501;SDS011;25393;46.108;3.390;2022-12-07T15:01:01;20.60;;;8.60;;
36501;SDS011;25393;46.108;3.390;2022-12-07T15:03:28;19.70;;;8.93;;
36501;SDS011;25393;46.108;3.390;2022-12-07T15:05:55;24.20;;;9.80;;
36501;SDS011;25393;46.108;3.390;2022-12-07T15:08:22;22.67;;;9.63;;
36501;SDS011;25393;46.108;3.390;2022-12-07T15:10:49;28.43;;;12.20;;
36501;SDS011;25393;46.108;3.390;2022-12-07T15:13:15;23.97;;;9.97;;
36501;SDS011;25393;46.108;3.390;2022-12-07T15:16:09;21.10;;;9.90;;
36501;SDS011;25393;46.108;3.390;2022-12-07T15:18:37;22.87;;;10.37;;
36501;SDS011;25393;46.108;3.390;2022-12-07T15:21:14;19.63;;;9.20;;
36501;SDS011;25393;46.108;3.390;2022-12-07T15:23:42;16.17;;;8.53;;
36501;SDS011;25393;46.108;3.390;2022-12-07T15:26:11;20.53;;;9.20;;
36501;SDS011;25393;46.108;3.390;2022-12-07T15:28:38;19.27;;;9.67;;
36501;SDS011;25393;46.108;3.390;2022-12-07T15:31:11;19.80;;;10.23;;
36501;SDS011;25393;46.108;3.390;2022-12-07T15:34:05;19.87;;;7.93;;
36501;SDS011;25393;46.108;3.390;2022-12-07T15:36:32;18.83;;;9.13;;
36501;SDS011;25393;46.108;3.390;2022-12-07T15:39:01;34.40;;;14.10;;
36501;SDS011;25393;46.108;3.390;2022-12-07T15:41:39;29.90;;;12.43;;
36501;SDS011;25393;46.108;3.390;2022-12-07T15:44:06;28.37;;;9.27;;
36501;SDS011;25393;46.108;3.390;2022-12-07T15:46:56;18.83;;;8.80;;
36501;SDS011;25393;46.108;3.390;2022-12-07T15:49:23;24.83;;;10.73;;
36501;SDS011;25393;46.108;3.390;2022-12-07T15:51:49;17.97;;;8.77;;
36501;SDS011;25393;46.108;3.390;2022-12-07T15:54:20;40.13;;;14.83;;
36501;SDS011;25393;46.108;3.390;2022-12-07T15:56:49;32.70;;;13.00;;
36501;SDS011;25393;46.108;3.390;2022-12-07T15:59:15;23.83;;;10.73;;
36501;SDS011;25393;46.108;3.390;2022-12-07T16:01:42;25.97;;;12.93;;
36501;SDS011;25393;46.108;3.390;2022-12-07T16:04:09;30.37;;;13.30;;
36501;SDS011;25393;46.108;3.390;2022-12-07T16:06:37;26.73;;;12.60;;
36501;SDS011;25393;46.108;3.390;2022-12-07T16:09:04;21.87;;;11.13;;
36501;SDS011;25393;46.108;3.390;2022-12-07T16:11:32;23.20;;;11.10;;
36501;SDS011;25393;46.108;3.390;2022-12-07T16:14:00;27.97;;;12.67;;
36501;SDS011;25393;46.108;3.390;2022-12-07T16:16:27;25.10;;;11.07;;
36501;SDS011;25393;46.108;3.390;2022-12-07T16:18:54;23.10;;;11.53;;
36501;SDS011;25393;46.108;3.390;2022-12-07T16:21:21;25.73;;;10.77;;
36501;SDS011;25393;46.108;3.390;2022-12-07T16:23:50;25.73;;;12.60;;
36501;SDS011;25393;46.108;3.390;2022-12-07T16:26:18;25.57;;;13.07;;
36501;SDS011;25393;46.108;3.390;2022-12-07T16:28:49;29.13;;;13.60;;
36501;SDS011;25393;46.108;3.390;2022-12-07T16:31:19;24.00;;;11.77;;
36501;SDS011;25393;46.108;3.390;2022-12-07T16:33:48;25.20;;;11.40;;
36501;SDS011;25393;46.108;3.390;2022-12-07T16:36:15;25.57;;;12.33;;
36501;SDS011;25393;46.108;3.390;2022-12-07T16:39:02;21.60;;;10.20;;
36501;SDS011;25393;46.108;3.390;2022-12-07T16:41:31;22.60;;;9.87;;
36501;SDS011;25393;46.108;3.390;2022-12-07T16:44:02;24.97;;;10.43;;
36501;SDS011;25393;46.108;3.390;2022-12-07T16:46:39;26.57;;;11.67;;
36501;SDS011;25393;46.108;3.390;2022-12-07T16:49:06;28.00;;;11.80;;
36501;SDS011;25393;46.108;3.390;2022-12-07T16:51:37;28.20;;;11.90;;
36501;SDS011;25393;46.108;3.390;2022-12-07T16:54:08;26.93;;;11.30;;
36501;SDS011;25393;46.108;3.390;2022-12-07T16:56:36;24.80;;;10.20;;
36501;SDS011;25393;46.108;3.390;2022-12-07T16:59:03;27.23;;;10.97;;
36501;SDS011;25393;46.108;3.390;2022-12-07T17:01:34;32.17;;;12.27;;
36501;SDS011;25393;46.108;3.390;2022-12-07T17:04:03;27.80;;;10.77;;
36501;SDS011;25393;46.108;3.390;2022-12-07T17:06:31;27.30;;;11.43;;
36501;SDS011;25393;46.108;3.390;2022-12-07T17:08:59;27.33;;;11.03;;
36501;SDS011;25393;46.108;3.390;2022-12-07T17:11:27;20.20;;;9.73;;
36501;SDS011;25393;46.108;3.390;2022-12-07T17:13:57;43.93;;;13.50;;
36501;SDS011;25393;46.108;3.390;2022-12-07T17:16:42;26.83;;;10.97;;